createdAt,value
2022-08-28T00:00:40.636Z,100.00
2022-08-28T00:03:08.473Z,100.00
2022-08-28T00:05:36.470Z,100.00
2022-08-28T00:08:04.454Z,100.00
2022-08-28T00:10:32.657Z,100.00
2022-08-28T00:13:00.421Z,100.00
2022-08-28T00:15:29.866Z,100.00
2022-08-28T00:17:57.626Z,100.00
2022-08-28T00:20:25.332Z,100.00
2022-08-28T00:22:53.056Z,100.00
2022-08-28T00:25:24.502Z,100.00
2022-08-28T00:27:57.709Z,100.00
2022-08-28T00:32:23.828Z,100.00
2022-08-28T00:34:51.435Z,100.00
2022-08-28T00:37:25.607Z,100.00
2022-08-28T00:39:54.178Z,100.00
2022-08-28T00:42:21.919Z,100.00
2022-08-28T00:44:48.948Z,100.00
2022-08-28T00:47:15.875Z,100.00
2022-08-28T00:49:52.816Z,100.00
2022-08-28T00:52:22.328Z,100.00
2022-08-28T00:54:59.307Z,100.00
2022-08-28T00:57:30.049Z,100.00
2022-08-28T00:59:59.950Z,100.00
2022-08-28T01:02:27.853Z,100.00
2022-08-28T01:04:56.131Z,100.00
2022-08-28T01:07:28.521Z,100.00
2022-08-28T01:09:58.091Z,100.00
2022-08-28T01:12:33.134Z,100.00
2022-08-28T01:15:16.419Z,100.00
2022-08-28T01:17:50.086Z,100.00
2022-08-28T01:20:22.279Z,100.00
2022-08-28T01:23:12.283Z,100.00
2022-08-28T01:25:40.748Z,100.00
2022-08-28T01:28:13.027Z,100.00
2022-08-28T01:30:47.925Z,100.00
2022-08-28T01:33:16.601Z,100.00
2022-08-28T01:35:48.914Z,100.00
2022-08-28T01:38:21.906Z,100.00
2022-08-28T01:40:58.643Z,100.00
2022-08-28T01:43:29.058Z,100.00
2022-08-28T01:46:04.914Z,100.00
2022-08-28T01:48:37.964Z,100.00
2022-08-28T01:51:06.400Z,100.00
2022-08-28T01:53:35.328Z,100.00
2022-08-28T01:56:12.227Z,100.00
2022-08-28T01:58:41.255Z,100.00
2022-08-28T02:01:16.440Z,100.00
2022-08-28T02:03:45.951Z,100.00
2022-08-28T02:06:14.226Z,100.00
2022-08-28T02:09:07.366Z,100.00
2022-08-28T02:12:16.077Z,100.00
2022-08-28T02:14:46.371Z,100.00
2022-08-28T02:25:25.363Z,100.00
2022-08-28T02:46:55.355Z,100.00
2022-08-28T02:49:39.235Z,100.00
2022-08-28T02:52:07.106Z,100.00
2022-08-28T03:34:31.033Z,100.00
2022-08-28T03:36:58.819Z,100.00
2022-08-28T03:39:26.129Z,100.00
2022-08-28T03:41:53.197Z,100.00
2022-08-28T03:44:20.329Z,100.00
2022-08-28T03:46:47.831Z,100.00
2022-08-28T03:49:15.390Z,100.00
2022-08-28T03:51:44.156Z,100.00
2022-08-28T03:54:25.690Z,100.00
2022-08-28T03:56:53.559Z,100.00
2022-08-28T03:59:26.633Z,100.00
2022-08-28T04:01:59.807Z,100.00
2022-08-28T04:04:26.905Z,100.00
2022-08-28T04:06:56.169Z,100.00
2022-08-28T04:09:23.453Z,100.00
2022-08-28T04:23:12.563Z,100.00
2022-08-28T04:25:40.646Z,100.00
2022-08-28T04:28:13.969Z,100.00
2022-08-28T04:30:42.503Z,100.00
2022-08-28T04:33:11.191Z,100.00
2022-08-28T04:35:50.654Z,100.00
2022-08-28T04:38:18.493Z,100.00
2022-08-28T04:40:45.399Z,100.00
2022-08-28T04:45:57.362Z,100.00
2022-08-28T04:48:25.298Z,100.00
2022-08-28T04:50:52.521Z,100.00
2022-08-28T04:53:23.984Z,100.00
2022-08-28T04:55:59.195Z,100.00
2022-08-28T04:58:31.174Z,100.00
2022-08-28T05:00:58.697Z,100.00
2022-08-28T05:03:29.052Z,100.00
2022-08-28T05:05:56.535Z,100.00
2022-08-28T05:08:27.897Z,100.00
2022-08-28T05:10:56.333Z,100.00
2022-08-28T05:13:23.654Z,100.00
2022-08-28T05:15:52.816Z,100.00
2022-08-28T05:18:23.218Z,100.00
2022-08-28T05:20:50.195Z,100.00
2022-08-28T05:23:18.089Z,100.00
2022-08-28T05:25:49.524Z,100.00
2022-08-28T05:28:17.532Z,99.61
2022-08-28T05:30:52.389Z,98.08
2022-08-28T05:33:21.063Z,97.94
2022-08-28T05:35:48.536Z,97.63
2022-08-28T05:38:17.573Z,95.58
2022-08-28T05:40:49.769Z,93.62
2022-08-28T05:43:18.817Z,92.23
2022-08-28T05:45:46.354Z,90.66
2022-08-28T05:48:16.824Z,89.40
2022-08-28T05:50:47.391Z,89.67
2022-08-28T05:53:14.844Z,89.65
2022-08-28T05:55:42.322Z,89.22
2022-08-28T05:58:34.994Z,84.49
2022-08-28T06:01:34.286Z,86.47
2022-08-28T06:04:10.444Z,80.33
2022-08-28T06:06:39.846Z,75.82
2022-08-28T06:09:29.428Z,79.44
2022-08-28T06:11:59.688Z,80.01
2022-08-28T06:14:35.076Z,76.89
2022-08-28T06:17:02.812Z,72.51
2022-08-28T06:19:31.670Z,70.13
2022-08-28T06:22:07.535Z,68.24
2022-08-28T06:24:38.642Z,65.28
2022-08-28T06:27:06.015Z,64.42
2022-08-28T06:29:33.376Z,66.62
2022-08-28T06:32:05.148Z,60.85
2022-08-28T06:34:32.401Z,63.02
2022-08-28T06:37:10.089Z,61.43
2022-08-28T06:39:37.592Z,60.01
2022-08-28T06:42:06.424Z,59.97
2022-08-28T06:44:33.849Z,57.44
2022-08-28T06:47:00.703Z,57.76
2022-08-28T06:49:28.065Z,58.30
2022-08-28T06:51:56.433Z,57.14
2022-08-28T06:54:31.189Z,52.68
2022-08-28T06:56:58.513Z,53.16
2022-08-28T07:02:30.605Z,53.16
2022-08-28T07:04:57.712Z,49.89
2022-08-28T07:07:31.480Z,48.67
2022-08-28T07:09:59.102Z,49.36
2022-08-28T07:12:26.240Z,48.67
2022-08-28T07:14:53.306Z,48.82
2022-08-28T07:17:20.421Z,47.31
2022-08-28T07:19:47.759Z,47.33
2022-08-28T07:22:14.835Z,49.46
2022-08-28T07:24:42.054Z,46.66
2022-08-28T07:27:09.753Z,45.88
2022-08-28T07:29:36.936Z,44.20
2022-08-28T07:32:04.528Z,44.86
2022-08-28T07:34:42.107Z,44.77
2022-08-28T07:37:12.186Z,44.31
2022-08-28T07:39:45.768Z,43.16
2022-08-28T07:42:35.567Z,42.42
2022-08-28T07:45:03.857Z,42.58
2022-08-28T07:47:32.001Z,42.49
2022-08-28T07:50:02.434Z,40.80
2022-08-28T07:52:29.807Z,41.45
2022-08-28T07:54:57.706Z,37.63
2022-08-28T07:57:25.169Z,35.82
2022-08-28T07:59:52.859Z,38.48
2022-08-28T08:02:20.047Z,35.68
2022-08-28T08:04:50.060Z,35.95
2022-08-28T08:07:21.371Z,34.61
2022-08-28T08:09:49.123Z,33.14
2022-08-28T08:12:17.484Z,29.60
2022-08-28T08:14:44.508Z,29.70
2022-08-28T08:17:11.511Z,29.55
2022-08-28T08:19:43.273Z,28.23
2022-08-28T08:22:10.304Z,29.00
2022-08-28T08:24:37.199Z,27.97
2022-08-28T08:27:04.647Z,26.79
2022-08-28T08:29:36.222Z,26.85
2022-08-28T08:32:07.223Z,28.01
2022-08-28T08:34:40.251Z,28.21
2022-08-28T08:37:08.881Z,29.30
2022-08-28T08:39:37.225Z,28.36
2022-08-28T08:42:07.981Z,28.38
2022-08-28T08:44:42.605Z,26.54
2022-08-28T08:47:16.215Z,26.66
2022-08-28T08:50:09.048Z,25.16
2022-08-28T08:52:45.161Z,26.46
2022-08-28T08:55:23.684Z,26.06
2022-08-28T08:58:05.625Z,25.35
2022-08-28T09:00:38.608Z,26.11
2022-08-28T09:03:22.475Z,25.60
2022-08-28T09:06:03.928Z,26.58
2022-08-28T09:08:37.044Z,27.55
2022-08-28T09:11:34.035Z,27.26
2022-08-28T09:14:16.265Z,28.75
2022-08-28T09:16:48.030Z,26.92
2022-08-28T09:19:21.137Z,27.49
2022-08-28T09:21:50.369Z,26.57
2022-08-28T09:24:24.465Z,26.25
2022-08-28T09:27:03.889Z,28.50
2022-08-28T09:29:40.467Z,25.65
2022-08-28T09:32:38.248Z,26.10
2022-08-28T09:35:24.156Z,27.67
2022-08-28T09:37:52.263Z,25.93
2022-08-28T09:40:53.249Z,26.59
2022-08-28T09:43:30.225Z,25.30
2022-08-28T09:46:03.182Z,26.33
2022-08-28T09:48:43.791Z,25.35
2022-08-28T09:51:14.775Z,25.40
2022-08-28T09:54:24.060Z,26.15
2022-08-28T09:56:52.018Z,24.77
2022-08-28T09:59:23.130Z,24.89
2022-08-28T10:01:58.960Z,24.44
2022-08-28T10:04:44.459Z,25.10
2022-08-28T10:07:39.158Z,25.36
2022-08-28T10:10:27.749Z,25.63
2022-08-28T10:13:28.937Z,25.33
2022-08-28T10:16:23.822Z,28.49
2022-08-28T10:18:59.311Z,26.27
2022-08-28T10:21:32.271Z,26.36
2022-08-28T10:24:15.384Z,26.87
2022-08-28T10:27:09.829Z,27.60
2022-08-28T10:30:12.899Z,26.03
2022-08-28T10:33:23.577Z,25.96
2022-08-28T10:36:04.298Z,25.88
2022-08-28T10:38:40.534Z,26.15
2022-08-28T10:41:15.182Z,24.81
2022-08-28T10:43:48.007Z,25.79
2022-08-28T10:46:27.024Z,26.00
2022-08-28T10:49:03.450Z,25.33
2022-08-28T10:51:46.356Z,24.59
2022-08-28T10:54:31.026Z,25.26
2022-08-28T10:57:23.053Z,25.94
2022-08-28T10:59:54.288Z,26.09
2022-08-28T11:02:26.114Z,26.74
2022-08-28T11:04:58.652Z,26.98
2022-08-28T11:07:37.531Z,28.92
2022-08-28T11:10:35.409Z,28.25
2022-08-28T11:13:05.001Z,28.16
2022-08-28T11:15:37.230Z,28.33
2022-08-28T11:18:17.103Z,28.38
2022-08-28T11:21:03.017Z,29.22
2022-08-28T11:24:01.990Z,28.97
2022-08-28T11:27:19.387Z,29.43
2022-08-28T11:30:02.205Z,28.96
2022-08-28T11:32:36.038Z,28.04
2022-08-28T11:35:21.987Z,29.26
2022-08-28T11:37:54.323Z,27.98
2022-08-28T11:40:34.719Z,28.85
2022-08-28T11:43:49.949Z,27.69
2022-08-28T11:46:19.956Z,27.68
2022-08-28T11:48:54.175Z,26.88
2022-08-28T11:52:06.305Z,28.22
2022-08-28T11:55:07.008Z,25.82
2022-08-28T12:00:37.289Z,26.96
2022-08-28T12:03:12.554Z,26.99
2022-08-28T12:05:45.430Z,27.29
2022-08-28T12:08:14.030Z,25.62
2022-08-28T12:10:59.957Z,26.75
2022-08-28T12:13:56.307Z,25.50
2022-08-28T12:16:23.343Z,26.76
2022-08-28T12:18:50.436Z,25.47
2022-08-28T12:21:27.021Z,25.84
2022-08-28T12:24:16.428Z,26.24
2022-08-28T12:26:53.571Z,26.06
2022-08-28T12:29:35.601Z,25.01
2022-08-28T12:32:27.078Z,24.45
2022-08-28T12:35:01.188Z,27.02
2022-08-28T12:38:00.098Z,27.20
2022-08-28T12:40:59.557Z,25.10
2022-08-28T12:43:44.296Z,26.67
2022-08-28T12:46:21.100Z,25.07
2022-08-28T12:48:58.891Z,26.54
2022-08-28T12:51:31.359Z,25.91
2022-08-28T12:54:14.092Z,26.47
2022-08-28T12:56:41.435Z,28.97
2022-08-28T12:59:37.010Z,26.68
2022-08-28T13:02:19.838Z,26.34
2022-08-28T13:05:09.950Z,25.72
2022-08-28T13:07:49.473Z,26.70
2022-08-28T13:10:30.234Z,26.45
2022-08-28T13:13:06.506Z,26.61
2022-08-28T13:15:46.129Z,26.77
2022-08-28T13:18:46.320Z,26.65
2022-08-28T13:21:31.723Z,26.36
2022-08-28T13:24:22.239Z,27.28
2022-08-28T13:27:12.732Z,26.50
2022-08-28T13:30:01.734Z,25.27
2022-08-28T13:32:32.780Z,26.67
2022-08-28T13:35:17.178Z,27.69
2022-08-28T13:37:49.236Z,26.37
2022-08-28T13:40:55.728Z,25.35
2022-08-28T13:43:19.506Z,27.23
2022-08-28T13:45:51.323Z,28.76
2022-08-28T13:48:23.327Z,30.16
2022-08-28T13:51:14.288Z,30.30
2022-08-28T13:53:48.478Z,31.38
2022-08-28T13:56:18.230Z,31.00
2022-08-28T13:58:50.010Z,32.14
2022-08-28T14:01:45.686Z,34.39
2022-08-28T14:04:19.380Z,35.93
2022-08-28T14:06:46.776Z,37.11
2022-08-28T14:09:17.766Z,38.02
2022-08-28T14:11:46.819Z,39.37
2022-08-28T14:14:14.518Z,40.27
2022-08-28T14:16:52.175Z,40.76
2022-08-28T14:19:22.292Z,40.55
2022-08-28T14:21:49.463Z,41.35
2022-08-28T14:24:17.187Z,42.86
2022-08-28T14:26:46.130Z,43.22
2022-08-28T14:29:15.636Z,45.60
2022-08-28T14:31:45.144Z,45.85
2022-08-28T14:34:19.168Z,46.03
2022-08-28T14:36:55.395Z,46.78
2022-08-28T14:39:25.906Z,47.54
2022-08-28T14:41:53.777Z,48.46
2022-08-28T14:44:23.445Z,48.80
2022-08-28T14:46:56.951Z,50.21
2022-08-28T14:49:25.953Z,49.81
2022-08-28T14:51:54.555Z,50.96
2022-08-28T14:54:24.532Z,51.56
2022-08-28T14:56:52.973Z,51.80
2022-08-28T14:59:24.794Z,53.13
2022-08-28T15:01:53.268Z,53.20
2022-08-28T15:04:23.217Z,53.53
2022-08-28T15:06:58.481Z,53.63
2022-08-28T15:09:26.435Z,53.86
2022-08-28T15:11:53.855Z,54.44
2022-08-28T15:14:24.420Z,54.90
2022-08-28T15:16:51.706Z,54.42
2022-08-28T15:19:18.850Z,54.90
2022-08-28T15:21:57.083Z,54.92
2022-08-28T15:28:58.821Z,52.45
2022-08-28T15:31:07.372Z,53.63
2022-08-28T15:37:34.467Z,55.80
2022-08-28T15:40:44.596Z,56.28
2022-08-28T15:53:18.403Z,59.18
2022-08-28T15:56:45.453Z,57.34
2022-08-28T15:59:49.499Z,59.14
2022-08-28T16:02:32.847Z,58.21
2022-08-28T16:05:49.251Z,60.98
2022-08-28T16:11:55.396Z,62.41
2022-08-28T16:14:57.793Z,63.24
2022-08-28T16:20:31.651Z,64.39
2022-08-28T16:26:13.493Z,64.86
2022-08-28T16:29:27.924Z,65.21
2022-08-28T16:32:12.562Z,66.87
2022-08-28T16:41:45.814Z,68.75
2022-08-28T16:45:04.161Z,68.87
2022-08-28T16:47:52.798Z,69.05
2022-08-28T16:50:34.693Z,67.81
2022-08-28T16:56:35.219Z,71.46
2022-08-28T16:59:20.390Z,72.02
2022-08-28T17:02:30.835Z,72.03
2022-08-28T17:05:13.994Z,72.45
2022-08-28T17:08:00.572Z,73.27
2022-08-28T17:10:59.666Z,74.18
2022-08-28T17:13:30.865Z,73.26
2022-08-28T17:19:00.212Z,74.49
2022-08-28T17:21:50.825Z,74.24
2022-08-28T17:24:18.125Z,74.87
2022-08-28T17:26:45.127Z,74.71
2022-08-28T17:29:47.379Z,74.74
2022-08-28T17:32:15.563Z,75.07
2022-08-28T17:35:16.747Z,75.84
2022-08-28T17:38:20.134Z,75.95
2022-08-28T17:41:24.184Z,77.61
2022-08-28T17:44:28.252Z,77.92
2022-08-28T17:46:56.420Z,78.15
2022-08-28T17:49:27.473Z,78.76
2022-08-28T17:52:13.222Z,77.76
2022-08-28T17:54:52.091Z,78.89
2022-08-28T17:57:30.905Z,78.85
2022-08-28T18:00:08.260Z,79.02
2022-08-28T18:02:58.847Z,78.97
2022-08-28T18:05:38.449Z,79.19
2022-08-28T18:08:45.099Z,80.14
2022-08-28T18:11:45.146Z,80.09
2022-08-28T18:14:30.986Z,81.00
2022-08-28T18:17:04.113Z,80.75
2022-08-28T18:19:37.373Z,79.38
2022-08-28T18:22:14.719Z,80.59
2022-08-28T18:28:22.745Z,82.29
2022-08-28T18:31:15.460Z,83.00
2022-08-28T18:34:40.410Z,83.94
2022-08-28T18:37:11.564Z,84.03
2022-08-28T18:39:40.954Z,84.07
2022-08-28T18:42:22.177Z,84.32
2022-08-28T18:45:01.075Z,83.28
2022-08-28T18:48:16.713Z,83.94
2022-08-28T18:54:50.374Z,85.54
2022-08-28T18:57:46.571Z,85.06
2022-08-28T19:00:30.596Z,84.21
2022-08-28T19:03:44.134Z,84.73
2022-08-28T19:10:32.922Z,85.64
2022-08-28T19:13:21.883Z,85.88
2022-08-28T19:16:01.919Z,85.55
2022-08-28T19:18:53.086Z,86.17
2022-08-28T19:21:35.980Z,85.81
2022-08-28T19:24:19.850Z,85.89
2022-08-28T19:27:01.854Z,86.38
2022-08-28T19:29:54.292Z,86.90
2022-08-28T19:32:34.429Z,87.29
2022-08-28T19:35:05.461Z,87.48
2022-08-28T19:37:39.736Z,87.27
2022-08-28T19:40:15.147Z,86.91
2022-08-28T19:42:52.175Z,87.00
2022-08-28T19:45:37.638Z,87.64
2022-08-28T19:52:08.109Z,88.19
2022-08-28T19:54:44.018Z,88.69
2022-08-28T19:57:37.266Z,88.65
2022-08-28T20:00:21.521Z,89.34
2022-08-28T20:03:03.942Z,89.37
2022-08-28T20:06:11.528Z,89.39
2022-08-28T20:15:18.447Z,90.39
2022-08-28T20:17:49.859Z,90.52
2022-08-28T20:20:29.339Z,90.95
2022-08-28T20:23:10.518Z,91.10
2022-08-28T20:31:53.961Z,91.77
2022-08-28T20:34:34.729Z,92.10
2022-08-28T20:37:07.061Z,92.25
2022-08-28T20:42:47.359Z,91.73
2022-08-28T20:45:22.794Z,92.50
2022-08-28T20:47:55.030Z,92.67
2022-08-28T20:50:36.064Z,92.29
2022-08-28T20:53:14.477Z,92.09
2022-08-28T20:56:08.400Z,92.58
2022-08-28T20:58:46.431Z,91.94
2022-08-28T21:01:37.736Z,92.76
2022-08-28T21:04:32.682Z,93.12
2022-08-28T21:07:12.914Z,93.60
2022-08-28T21:10:05.679Z,93.56
2022-08-28T21:12:49.548Z,93.52
2022-08-28T21:15:22.404Z,94.47
2022-08-28T21:17:50.270Z,93.66
2022-08-28T21:20:17.775Z,93.87
2022-08-28T21:22:46.158Z,94.59
2022-08-28T21:25:18.274Z,94.97
2022-08-28T21:28:04.215Z,94.99
2022-08-28T21:30:35.496Z,94.50
2022-08-28T21:33:03.247Z,94.81
2022-08-28T21:35:30.694Z,94.77
2022-08-28T21:38:01.515Z,95.77
2022-08-28T21:40:32.240Z,94.85
2022-08-28T21:43:05.020Z,94.40
2022-08-28T21:45:33.729Z,94.81
2022-08-28T21:48:01.418Z,94.89
2022-08-28T21:50:38.162Z,95.04
2022-08-28T21:53:36.250Z,95.13
2022-08-28T21:56:05.538Z,95.29
2022-08-28T21:58:55.103Z,95.05
2022-08-28T22:01:29.352Z,95.33
2022-08-28T22:03:59.927Z,95.67
2022-08-28T22:06:30.834Z,95.79
2022-08-28T22:08:59.167Z,96.04
2022-08-28T22:11:35.458Z,96.32
2022-08-28T22:14:03.153Z,96.35
2022-08-28T22:16:30.717Z,97.93
2022-08-28T22:18:59.046Z,97.85
2022-08-28T22:22:05.985Z,96.78
2022-08-28T22:24:39.410Z,96.80
2022-08-28T22:27:07.193Z,96.53
2022-08-28T22:30:00.691Z,95.73
2022-08-28T22:32:28.680Z,95.90
2022-08-28T22:34:58.743Z,95.70
2022-08-28T22:37:29.281Z,96.68
2022-08-28T22:39:58.257Z,96.82
2022-08-28T22:42:26.982Z,96.71
2022-08-28T22:44:55.294Z,97.36
2022-08-28T22:47:25.831Z,96.65
2022-08-28T22:49:56.408Z,96.81
2022-08-28T22:52:23.939Z,97.05
2022-08-28T22:54:54.975Z,96.65
2022-08-28T22:57:29.304Z,97.25
2022-08-28T23:00:01.804Z,97.46
2022-08-28T23:02:32.965Z,97.38
2022-08-28T23:05:03.037Z,96.80
2022-08-28T23:07:33.351Z,97.57
2022-08-28T23:10:06.626Z,96.50
2022-08-28T23:12:35.050Z,97.23
2022-08-28T23:15:19.269Z,96.40
2022-08-28T23:17:52.247Z,97.15
2022-08-28T23:20:22.603Z,97.69
2022-08-28T23:22:50.465Z,97.08
2022-08-28T23:25:24.998Z,97.05
2022-08-28T23:27:54.978Z,97.47
2022-08-28T23:30:23.570Z,97.77
2022-08-28T23:32:51.961Z,98.14
2022-08-28T23:35:20.380Z,100.00
2022-08-28T23:37:51.906Z,98.31
2022-08-28T23:40:22.072Z,98.01
2022-08-28T23:42:50.267Z,97.23
2022-08-28T23:45:27.695Z,97.58
2022-08-28T23:47:55.764Z,96.80
2022-08-28T23:50:27.811Z,97.46
2022-08-28T23:52:58.666Z,97.29
2022-08-28T23:55:27.099Z,97.82
2022-08-28T23:57:55.738Z,97.68
